createdAt,value
2022-11-06T00:04:39.015Z,98.67
2022-11-06T00:09:40.692Z,98.26
2022-11-06T00:14:42.271Z,98.48
2022-11-06T00:19:43.916Z,98.63
2022-11-06T00:24:45.589Z,98.53
2022-11-06T00:29:47.220Z,98.38
2022-11-06T00:34:48.821Z,98.58
2022-11-06T00:39:50.660Z,98.36
2022-11-06T00:44:52.287Z,98.48
2022-11-06T00:49:53.941Z,98.50
2022-11-06T00:54:55.537Z,98.25
2022-11-06T00:59:57.249Z,97.99
2022-11-06T01:04:58.880Z,98.06
2022-11-06T01:10:00.545Z,98.22
2022-11-06T01:15:02.642Z,98.24
2022-11-06T01:20:04.747Z,98.21
2022-11-06T01:25:07.063Z,98.64
2022-11-06T01:30:09.162Z,98.57
2022-11-06T01:35:12.013Z,98.51
2022-11-06T01:40:13.911Z,98.45
2022-11-06T01:45:24.412Z,98.63
2022-11-06T01:50:26.172Z,98.70
2022-11-06T01:55:40.547Z,98.53
2022-11-06T02:00:43.178Z,98.51
2022-11-06T02:05:45.206Z,98.82
2022-11-06T02:10:47.069Z,98.60
2022-11-06T02:16:12.026Z,98.95
2022-11-06T02:21:25.408Z,98.78
2022-11-06T02:26:45.717Z,98.82
2022-11-06T02:31:47.920Z,98.70
2022-11-06T02:36:57.375Z,98.74
2022-11-06T02:41:59.835Z,98.80
2022-11-06T02:47:05.906Z,98.73
2022-11-06T02:52:23.866Z,98.71
2022-11-06T02:57:26.987Z,98.84
2022-11-06T03:02:33.467Z,98.70
2022-11-06T03:07:38.982Z,98.66
2022-11-06T03:12:59.107Z,98.92
2022-11-06T03:18:11.772Z,98.67
2022-11-06T03:23:36.334Z,98.88
2022-11-06T03:28:50.302Z,98.75
2022-11-06T03:33:55.309Z,98.94
2022-11-06T03:39:01.075Z,98.92
2022-11-06T03:44:04.690Z,98.81
2022-11-06T03:49:10.727Z,98.85
2022-11-06T03:54:15.549Z,98.80
2022-11-06T03:59:23.293Z,98.72
2022-11-06T04:04:34.124Z,98.82
2022-11-06T04:09:56.592Z,98.60
2022-11-06T04:14:59.496Z,98.74
2022-11-06T04:20:03.127Z,98.73
2022-11-06T04:25:32.748Z,98.76
2022-11-06T04:30:40.719Z,98.75
2022-11-06T04:36:18.481Z,98.40
2022-11-06T04:41:34.896Z,98.44
2022-11-06T04:46:47.604Z,98.49
2022-11-06T04:51:49.422Z,98.39
2022-11-06T04:56:51.077Z,98.36
2022-11-06T05:01:52.967Z,98.23
2022-11-06T05:06:54.787Z,98.19
2022-11-06T05:11:56.406Z,98.00
2022-11-06T05:16:58.090Z,98.12
2022-11-06T05:22:18.356Z,98.21
2022-11-06T05:27:19.947Z,98.38
2022-11-06T05:32:21.543Z,98.31
2022-11-06T05:37:23.201Z,98.60
2022-11-06T05:42:24.833Z,98.28
2022-11-06T05:47:26.549Z,98.71
2022-11-06T05:52:28.552Z,98.68
2022-11-06T05:57:30.161Z,98.69
2022-11-06T06:02:31.937Z,98.66
2022-11-06T06:07:33.720Z,98.59
2022-11-06T06:12:35.364Z,98.94
2022-11-06T06:17:37.007Z,98.89
2022-11-06T06:22:38.649Z,98.88
2022-11-06T06:27:40.400Z,98.96
2022-11-06T06:32:42.084Z,98.98
2022-11-06T06:37:50.596Z,99.04
2022-11-06T06:42:55.154Z,99.18
2022-11-06T06:48:04.532Z,99.12
2022-11-06T06:53:06.127Z,99.00
2022-11-06T06:58:07.799Z,98.50
2022-11-06T07:03:10.033Z,98.92
2022-11-06T07:08:11.886Z,98.77
2022-11-06T07:13:13.818Z,98.69
2022-11-06T07:18:16.007Z,98.51
2022-11-06T07:23:18.006Z,98.31
2022-11-06T07:28:20.281Z,98.25
2022-11-06T07:33:21.886Z,98.21
2022-11-06T07:38:27.901Z,97.71
2022-11-06T07:43:29.599Z,97.37
2022-11-06T07:48:31.781Z,97.32
2022-11-06T07:53:33.516Z,96.71
2022-11-06T07:58:35.410Z,96.28
2022-11-06T08:03:37.473Z,95.84
2022-11-06T08:08:39.404Z,95.22
2022-11-06T08:13:41.320Z,95.15
2022-11-06T08:18:43.449Z,94.89
2022-11-06T08:23:45.688Z,94.34
2022-11-06T08:28:47.451Z,93.78
2022-11-06T08:33:49.310Z,93.05
2022-11-06T08:38:50.980Z,92.13
2022-11-06T08:43:55.511Z,91.34
2022-11-06T08:48:57.636Z,91.25
2022-11-06T08:53:59.661Z,90.74
2022-11-06T08:59:01.390Z,90.01
2022-11-06T09:04:03.189Z,89.32
2022-11-06T09:09:04.818Z,88.90
2022-11-06T09:14:06.576Z,87.74
2022-11-06T09:19:08.287Z,87.54
2022-11-06T09:24:10.001Z,87.62
2022-11-06T09:29:11.686Z,88.09
2022-11-06T09:34:13.295Z,86.90
2022-11-06T09:39:15.113Z,85.07
2022-11-06T09:44:39.395Z,83.79
2022-11-06T09:49:52.333Z,83.62
2022-11-06T09:54:59.353Z,83.39
2022-11-06T10:00:05.249Z,83.66
2022-11-06T10:05:25.912Z,81.74
2022-11-06T10:10:56.746Z,81.31
2022-11-06T10:16:04.761Z,79.98
2022-11-06T10:21:20.929Z,79.98
2022-11-06T10:26:33.556Z,77.14
2022-11-06T10:31:49.255Z,76.96
2022-11-06T10:37:12.279Z,75.93
2022-11-06T10:42:35.174Z,74.45
2022-11-06T10:47:47.145Z,74.24
2022-11-06T10:52:54.685Z,70.98
2022-11-06T10:58:02.396Z,71.24
2022-11-06T11:03:06.744Z,70.98
2022-11-06T11:08:28.562Z,70.41
2022-11-06T11:13:30.221Z,69.75
2022-11-06T11:18:34.670Z,69.37
2022-11-06T11:23:36.321Z,69.81
2022-11-06T11:28:38.489Z,68.79
2022-11-06T11:33:42.157Z,66.80
2022-11-06T11:38:44.233Z,61.71
2022-11-06T11:44:09.517Z,62.80
2022-11-06T11:49:26.448Z,60.76
2022-11-06T11:54:30.733Z,59.34
2022-11-06T11:59:43.957Z,59.32
2022-11-06T12:04:49.763Z,59.86
2022-11-06T12:09:51.468Z,58.25
2022-11-06T12:15:21.191Z,59.70
2022-11-06T12:20:42.890Z,59.33
2022-11-06T12:25:48.980Z,60.14
2022-11-06T12:31:01.680Z,56.85
2022-11-06T12:36:07.586Z,57.29
2022-11-06T12:41:41.500Z,57.67
2022-11-06T12:47:26.621Z,57.63
2022-11-06T12:52:43.514Z,57.91
2022-11-06T12:58:25.376Z,59.92
2022-11-06T13:03:53.706Z,59.51
2022-11-06T13:09:04.909Z,60.58
2022-11-06T13:14:11.342Z,60.26
2022-11-06T13:19:25.188Z,60.54
2022-11-06T13:24:49.729Z,61.28
2022-11-06T13:29:51.663Z,60.76
2022-11-06T13:34:55.071Z,60.66
2022-11-06T13:40:06.747Z,61.02
2022-11-06T13:45:09.945Z,61.07
2022-11-06T13:50:33.192Z,61.09
2022-11-06T13:55:56.364Z,61.43
2022-11-06T14:01:04.173Z,61.87
2022-11-06T14:06:08.432Z,63.21
2022-11-06T14:11:16.376Z,63.43
2022-11-06T14:16:17.890Z,63.48
2022-11-06T14:21:37.667Z,64.97
2022-11-06T14:26:44.597Z,65.37
2022-11-06T14:32:24.164Z,66.08
2022-11-06T14:37:30.583Z,66.31
2022-11-06T14:42:38.364Z,67.15
2022-11-06T14:47:45.903Z,67.29
2022-11-06T14:52:51.164Z,69.83
2022-11-06T14:57:54.447Z,70.81
2022-11-06T15:02:56.076Z,72.06
2022-11-06T15:08:05.069Z,72.93
2022-11-06T15:18:34.058Z,76.22
2022-11-06T15:24:26.695Z,77.43
2022-11-06T15:29:31.605Z,78.61
2022-11-06T15:34:36.803Z,79.17
2022-11-06T15:39:43.328Z,80.04
2022-11-06T15:44:45.762Z,80.58
2022-11-06T15:49:47.484Z,81.87
2022-11-06T15:54:56.880Z,81.98
2022-11-06T16:00:18.386Z,82.69
2022-11-06T16:05:20.714Z,82.79
2022-11-06T16:10:23.072Z,82.98
2022-11-06T16:15:43.086Z,83.40
2022-11-06T16:20:47.145Z,83.77
2022-11-06T16:25:48.937Z,84.53
2022-11-06T16:30:50.617Z,85.03
2022-11-06T16:36:06.558Z,86.04
2022-11-06T16:41:08.546Z,86.07
2022-11-06T16:46:11.184Z,86.94
2022-11-06T16:51:14.933Z,87.23
2022-11-06T16:56:22.577Z,88.17
2022-11-06T17:01:24.779Z,88.50
2022-11-06T17:06:29.363Z,88.23
2022-11-06T17:11:31.564Z,88.74
2022-11-06T17:16:45.654Z,88.72
2022-11-06T17:21:48.294Z,88.52
2022-11-06T17:26:52.956Z,87.97
2022-11-06T17:31:55.795Z,87.63
2022-11-06T17:36:57.385Z,88.32
2022-11-06T17:41:58.983Z,88.54
2022-11-06T17:47:01.993Z,88.41
2022-11-06T17:52:03.789Z,88.48
2022-11-06T17:57:07.214Z,89.14
2022-11-06T18:02:12.943Z,89.03
2022-11-06T18:07:14.907Z,88.52
2022-11-06T18:12:17.541Z,88.82
2022-11-06T18:17:19.236Z,88.82
2022-11-06T18:22:22.311Z,88.72
2022-11-06T18:27:23.927Z,89.24
2022-11-06T18:32:25.525Z,89.05
2022-11-06T18:37:27.118Z,89.11
2022-11-06T18:42:28.718Z,89.05
2022-11-06T18:47:30.398Z,89.32
2022-11-06T18:52:57.821Z,88.96
2022-11-06T18:57:59.976Z,89.08
2022-11-06T19:03:01.640Z,88.78
2022-11-06T19:08:04.075Z,88.99
2022-11-06T19:13:06.321Z,88.93
2022-11-06T19:18:08.562Z,88.49
2022-11-06T19:23:14.634Z,88.88
2022-11-06T19:28:17.387Z,88.80
2022-11-06T19:33:19.056Z,88.61
2022-11-06T19:38:21.560Z,88.27
2022-11-06T19:43:23.445Z,87.94
2022-11-06T19:48:25.100Z,87.97
2022-11-06T19:53:27.199Z,88.07
2022-11-06T19:58:29.277Z,87.59
2022-11-06T20:03:30.859Z,88.08
2022-11-06T20:08:33.781Z,87.83
2022-11-06T20:13:39.173Z,87.69
2022-11-06T20:18:41.083Z,87.66
2022-11-06T20:23:55.732Z,87.87
2022-11-06T20:29:03.467Z,87.77
2022-11-06T20:34:10.982Z,87.74
2022-11-06T20:39:15.240Z,87.47
2022-11-06T20:44:16.841Z,87.54
2022-11-06T20:49:18.527Z,87.29
2022-11-06T20:54:23.158Z,87.28
2022-11-06T20:59:24.961Z,87.44
2022-11-06T21:04:26.581Z,87.55
2022-11-06T21:09:28.188Z,87.83
2022-11-06T21:14:30.260Z,87.56
2022-11-06T21:19:33.101Z,88.04
2022-11-06T21:24:34.696Z,87.77
2022-11-06T21:29:37.870Z,87.82
2022-11-06T21:34:39.460Z,87.70
2022-11-06T21:39:51.294Z,87.79
2022-11-06T21:44:55.672Z,88.12
2022-11-06T21:49:57.309Z,87.88
2022-11-06T21:55:17.334Z,88.02
2022-11-06T22:00:19.064Z,87.55
2022-11-06T22:05:20.682Z,87.77
2022-11-06T22:10:22.531Z,87.98
2022-11-06T22:15:24.274Z,87.99
2022-11-06T22:20:26.070Z,87.83
2022-11-06T22:25:27.706Z,87.79
2022-11-06T22:30:29.335Z,87.34
2022-11-06T22:35:30.995Z,85.67
2022-11-06T22:40:32.653Z,85.06
2022-11-06T22:45:34.305Z,85.10
2022-11-06T22:50:36.544Z,84.72
2022-11-06T22:55:38.199Z,84.31
2022-11-06T23:00:39.966Z,84.11
2022-11-06T23:05:41.727Z,83.92
2022-11-06T23:10:44.144Z,83.59
2022-11-06T23:15:45.908Z,83.81
2022-11-06T23:20:47.568Z,84.18
2022-11-06T23:25:49.346Z,84.24
2022-11-06T23:30:51.030Z,84.06
2022-11-06T23:35:52.678Z,83.77
2022-11-06T23:40:55.144Z,84.49
2022-11-06T23:45:58.568Z,83.82
2022-11-06T23:51:00.232Z,83.59
2022-11-06T23:56:06.767Z,82.92
